createdAt,value
2023-05-15T00:02:00.418Z,0.68
2023-05-15T00:04:29.883Z,1.20
2023-05-15T00:06:58.239Z,0.70
2023-05-15T00:09:26.317Z,0.88
2023-05-15T00:11:54.450Z,0.98
2023-05-15T00:14:22.600Z,0.90
2023-05-15T00:16:50.785Z,0.93
2023-05-15T00:19:18.960Z,0.68
2023-05-15T00:21:48.617Z,0.95
2023-05-15T00:24:16.592Z,1.13
2023-05-15T00:26:44.758Z,0.93
2023-05-15T00:29:12.758Z,0.90
2023-05-15T00:31:40.943Z,0.90
2023-05-15T00:34:09.014Z,0.63
2023-05-15T00:36:37.218Z,0.85
2023-05-15T00:39:06.703Z,1.05
2023-05-15T00:41:36.556Z,0.80
2023-05-15T00:44:05.227Z,0.80
2023-05-15T00:46:34.136Z,1.10
2023-05-15T00:49:02.255Z,0.95
2023-05-15T00:51:30.428Z,0.55
2023-05-15T00:53:59.789Z,1.00
2023-05-15T00:56:31.519Z,0.43
2023-05-15T00:59:00.782Z,0.80
2023-05-15T01:01:33.288Z,0.77
2023-05-15T01:04:02.452Z,0.85
2023-05-15T01:06:31.271Z,1.02
2023-05-15T01:09:04.023Z,1.05
2023-05-15T01:11:37.067Z,0.93
2023-05-15T01:14:06.676Z,0.70
2023-05-15T01:16:34.834Z,1.20
2023-05-15T01:19:03.235Z,1.25
2023-05-15T01:22:01.143Z,0.88
2023-05-15T01:24:52.146Z,0.73
2023-05-15T01:27:29.780Z,0.75
2023-05-15T01:30:05.070Z,0.73
2023-05-15T01:32:39.330Z,1.00
2023-05-15T01:35:13.268Z,0.50
2023-05-15T01:37:45.498Z,0.85
2023-05-15T01:40:16.321Z,0.85
2023-05-15T01:42:52.909Z,0.70
2023-05-15T01:45:24.982Z,0.82
2023-05-15T01:47:55.471Z,0.88
2023-05-15T01:50:24.005Z,0.52
2023-05-15T01:52:55.628Z,0.63
2023-05-15T01:55:26.695Z,0.68
2023-05-15T01:57:58.353Z,0.90
2023-05-15T02:00:27.195Z,1.35
2023-05-15T02:02:55.962Z,0.98
2023-05-15T02:05:24.894Z,0.60
2023-05-15T02:07:53.637Z,0.88
2023-05-15T02:10:22.844Z,0.80
2023-05-15T02:12:51.273Z,0.70
2023-05-15T02:15:23.157Z,0.80
2023-05-15T02:17:51.622Z,0.80
2023-05-15T02:20:19.778Z,1.17
2023-05-15T02:22:47.804Z,0.70
2023-05-15T02:25:16.096Z,1.20
2023-05-15T02:27:49.663Z,0.80
2023-05-15T02:30:30.518Z,1.02
2023-05-15T02:33:08.960Z,0.82
2023-05-15T02:35:43.373Z,0.80
2023-05-15T02:38:17.293Z,0.63
2023-05-15T02:40:48.789Z,0.73
2023-05-15T02:43:18.212Z,0.60
2023-05-15T02:45:48.446Z,0.90
2023-05-15T02:48:17.308Z,0.70
2023-05-15T02:50:45.922Z,0.73
2023-05-15T02:53:15.590Z,0.70
2023-05-15T02:55:43.642Z,0.57
2023-05-15T02:58:11.923Z,0.80
2023-05-15T03:00:40.093Z,0.70
2023-05-15T03:03:09.602Z,0.80
2023-05-15T03:05:37.716Z,0.70
2023-05-15T03:08:07.044Z,0.93
2023-05-15T03:10:35.114Z,0.88
2023-05-15T03:13:04.067Z,0.98
2023-05-15T03:15:32.330Z,0.60
2023-05-15T03:18:00.447Z,0.93
2023-05-15T03:20:29.959Z,0.88
2023-05-15T03:22:58.089Z,1.00
2023-05-15T03:25:26.681Z,0.85
2023-05-15T03:27:55.008Z,0.73
2023-05-15T03:30:23.139Z,0.50
2023-05-15T03:32:51.321Z,1.17
2023-05-15T03:35:19.407Z,0.77
2023-05-15T03:37:48.925Z,0.63
2023-05-15T03:40:17.113Z,0.98
2023-05-15T03:42:45.130Z,0.73
2023-05-15T03:45:13.287Z,1.33
2023-05-15T03:47:42.869Z,0.75
2023-05-15T03:50:12.949Z,1.00
2023-05-15T03:52:42.300Z,0.70
2023-05-15T03:55:12.228Z,0.65
2023-05-15T03:57:41.530Z,0.73
2023-05-15T04:00:11.214Z,0.85
2023-05-15T04:02:40.277Z,0.77
2023-05-15T04:05:09.151Z,1.02
2023-05-15T04:07:38.263Z,0.60
2023-05-15T04:10:07.248Z,0.70
2023-05-15T04:12:37.204Z,1.05
2023-05-15T04:15:19.007Z,0.55
2023-05-15T04:17:48.229Z,0.93
2023-05-15T04:20:18.228Z,0.77
2023-05-15T04:22:46.904Z,0.88
2023-05-15T04:25:16.155Z,1.90
2023-05-15T04:27:45.988Z,0.85
2023-05-15T04:30:14.876Z,1.27
2023-05-15T04:32:43.235Z,1.08
2023-05-15T04:35:13.513Z,0.90
2023-05-15T04:37:42.756Z,0.80
2023-05-15T04:40:12.285Z,0.88
2023-05-15T04:42:40.391Z,0.70
2023-05-15T04:45:10.942Z,0.95
2023-05-15T04:47:39.232Z,1.00
2023-05-15T04:50:09.207Z,1.02
2023-05-15T04:52:37.324Z,1.00
2023-05-15T04:55:06.246Z,0.47
2023-05-15T04:57:34.391Z,1.10
2023-05-15T05:00:02.469Z,1.00
2023-05-15T05:02:31.921Z,0.85
2023-05-15T05:05:00.065Z,1.02
2023-05-15T05:07:28.155Z,0.65
2023-05-15T05:09:56.260Z,0.93
2023-05-15T05:12:25.931Z,0.75
2023-05-15T05:14:56.483Z,1.10
2023-05-15T05:17:24.791Z,0.93
2023-05-15T05:19:54.241Z,1.20
2023-05-15T05:22:22.350Z,0.98
2023-05-15T05:24:50.388Z,1.40
2023-05-15T05:27:18.486Z,0.90
2023-05-15T05:29:46.811Z,1.20
2023-05-15T05:32:14.872Z,1.20
2023-05-15T05:34:42.883Z,1.10
2023-05-15T05:37:12.233Z,1.50
2023-05-15T05:39:40.341Z,0.77
2023-05-15T05:42:08.503Z,1.10
2023-05-15T05:44:36.606Z,1.08
2023-05-15T05:47:04.921Z,1.15
2023-05-15T05:49:32.991Z,1.00
2023-05-15T05:52:07.212Z,1.08
2023-05-15T05:54:37.140Z,0.88
2023-05-15T05:57:05.699Z,1.20
2023-05-15T05:59:33.753Z,1.10
2023-05-15T06:02:01.796Z,1.75
2023-05-15T06:04:29.989Z,1.17
2023-05-15T06:06:58.227Z,1.13
2023-05-15T06:09:26.409Z,1.35
2023-05-15T06:11:56.116Z,1.15
2023-05-15T06:14:24.362Z,1.27
2023-05-15T06:16:52.375Z,1.27
2023-05-15T06:19:21.725Z,1.05
2023-05-15T06:21:49.830Z,1.45
2023-05-15T06:24:17.827Z,1.02
2023-05-15T06:26:45.977Z,1.48
2023-05-15T06:29:15.458Z,1.20
2023-05-15T06:31:43.592Z,1.10
2023-05-15T06:34:11.667Z,1.50
2023-05-15T06:37:13.052Z,1.55
2023-05-15T06:39:41.360Z,1.40
2023-05-15T06:42:09.494Z,1.23
2023-05-15T06:44:38.946Z,1.15
2023-05-15T06:47:07.810Z,1.25
2023-05-15T06:49:35.981Z,1.33
2023-05-15T06:52:04.352Z,1.63
2023-05-15T06:54:32.689Z,1.25
2023-05-15T06:57:00.919Z,1.45
2023-05-15T06:59:28.949Z,1.20
2023-05-15T07:01:58.463Z,1.42
2023-05-15T07:04:27.406Z,1.50
2023-05-15T07:06:55.576Z,1.38
2023-05-15T07:09:23.711Z,1.25
2023-05-15T07:11:51.843Z,1.45
2023-05-15T07:14:20.009Z,1.83
2023-05-15T07:16:48.185Z,1.48
2023-05-15T07:19:21.629Z,1.38
2023-05-15T07:21:49.994Z,2.08
2023-05-15T07:24:18.099Z,1.60
2023-05-15T07:26:57.461Z,1.45
2023-05-15T07:29:26.611Z,1.20
2023-05-15T07:31:54.873Z,1.80
2023-05-15T07:34:24.837Z,1.63
2023-05-15T07:36:52.925Z,1.52
2023-05-15T07:39:21.074Z,2.03
2023-05-15T07:41:49.253Z,1.60
2023-05-15T07:44:17.484Z,1.58
2023-05-15T07:46:46.195Z,1.45
2023-05-15T07:49:14.479Z,2.35
2023-05-15T07:51:43.939Z,1.73
2023-05-15T07:54:12.029Z,1.77
2023-05-15T07:56:40.353Z,1.70
2023-05-15T07:59:08.686Z,2.25
2023-05-15T08:01:36.861Z,2.05
2023-05-15T08:04:09.012Z,2.03
2023-05-15T08:06:38.392Z,1.90
2023-05-15T08:09:08.066Z,1.52
2023-05-15T08:11:36.591Z,2.08
2023-05-15T08:14:04.802Z,2.10
2023-05-15T08:16:33.037Z,1.80
2023-05-15T08:19:05.175Z,1.92
2023-05-15T08:21:33.389Z,2.00
2023-05-15T08:24:01.640Z,2.50
2023-05-15T08:26:31.099Z,2.42
2023-05-15T08:28:59.195Z,2.30
2023-05-15T08:31:27.343Z,2.78
2023-05-15T08:33:55.665Z,2.15
2023-05-15T08:36:23.990Z,2.83
2023-05-15T08:38:52.158Z,3.10
2023-05-15T08:41:39.924Z,3.17
2023-05-15T08:44:12.272Z,3.08
2023-05-15T08:46:40.789Z,3.00
2023-05-15T08:49:15.760Z,3.75
2023-05-15T08:51:44.176Z,3.58
2023-05-15T08:54:12.729Z,3.50
2023-05-15T08:56:41.022Z,3.28
2023-05-15T08:59:10.493Z,3.80
2023-05-15T09:01:39.523Z,4.13
2023-05-15T09:04:07.806Z,4.00
2023-05-15T09:06:37.202Z,4.05
2023-05-15T09:09:06.436Z,4.20
2023-05-15T09:11:34.972Z,3.53
2023-05-15T09:14:03.240Z,4.13
2023-05-15T09:16:32.771Z,3.33
2023-05-15T09:19:01.780Z,3.47
2023-05-15T09:21:33.280Z,4.72
2023-05-15T09:24:20.293Z,4.50
2023-05-15T09:27:02.871Z,5.45
2023-05-15T09:29:32.156Z,3.90
2023-05-15T09:32:07.251Z,5.15
2023-05-15T09:34:37.164Z,5.55
2023-05-15T09:37:08.050Z,5.45
2023-05-15T09:39:41.635Z,5.30
2023-05-15T09:42:11.397Z,4.82
2023-05-15T09:44:43.735Z,4.55
2023-05-15T09:47:14.962Z,4.45
2023-05-15T09:49:46.922Z,6.35
2023-05-15T09:52:17.502Z,5.68
2023-05-15T09:54:49.478Z,6.90
2023-05-15T09:57:23.285Z,6.10
2023-05-15T09:59:54.471Z,5.97
2023-05-15T10:02:32.102Z,5.82
2023-05-15T10:05:00.855Z,6.50
2023-05-15T10:07:30.261Z,5.90
2023-05-15T10:09:58.532Z,5.03
2023-05-15T10:12:26.858Z,5.95
2023-05-15T10:14:57.079Z,5.70
2023-05-15T10:17:27.892Z,5.15
2023-05-15T10:19:59.830Z,4.53
2023-05-15T10:22:31.619Z,4.50
2023-05-15T10:25:04.100Z,6.03
2023-05-15T10:27:35.392Z,6.13
2023-05-15T10:30:04.762Z,5.38
2023-05-15T10:32:35.131Z,6.18
2023-05-15T10:35:04.302Z,6.30
2023-05-15T10:37:33.196Z,5.75
2023-05-15T10:40:02.731Z,5.80
2023-05-15T10:42:31.420Z,7.43
2023-05-15T10:45:02.730Z,6.30
2023-05-15T10:47:33.082Z,6.57
2023-05-15T10:50:01.318Z,4.50
2023-05-15T10:52:29.486Z,6.15
2023-05-15T10:54:57.851Z,6.68
2023-05-15T10:57:25.993Z,5.82
2023-05-15T10:59:54.089Z,6.07
2023-05-15T11:02:24.170Z,6.45
2023-05-15T11:05:01.042Z,6.20
2023-05-15T11:07:29.255Z,6.28
2023-05-15T11:09:57.746Z,7.68
2023-05-15T11:12:27.135Z,7.50
2023-05-15T11:15:25.956Z,6.90
2023-05-15T11:18:06.383Z,6.85
2023-05-15T11:20:41.391Z,5.85
2023-05-15T11:23:10.493Z,5.68
2023-05-15T11:25:39.483Z,7.13
2023-05-15T11:28:22.833Z,7.53
2023-05-15T11:30:55.014Z,5.65
2023-05-15T11:33:25.171Z,6.32
2023-05-15T11:36:03.530Z,6.47
2023-05-15T11:38:40.404Z,6.18
2023-05-15T11:41:20.089Z,5.50
2023-05-15T11:43:49.792Z,6.25
2023-05-15T11:46:19.242Z,5.75
2023-05-15T11:48:49.617Z,5.63
2023-05-15T11:51:22.151Z,5.72
2023-05-15T11:53:53.225Z,5.15
2023-05-15T11:56:24.251Z,5.05
2023-05-15T11:58:54.051Z,5.95
2023-05-15T12:01:23.245Z,6.05
2023-05-15T12:03:54.932Z,6.47
2023-05-15T12:06:25.064Z,5.32
2023-05-15T12:08:54.498Z,5.57
2023-05-15T12:11:23.987Z,6.22
2023-05-15T12:13:54.098Z,6.20
2023-05-15T12:16:26.132Z,5.95
2023-05-15T12:18:54.760Z,5.20
2023-05-15T12:21:24.272Z,5.47
2023-05-15T12:24:06.428Z,6.03
2023-05-15T12:26:36.188Z,5.13
2023-05-15T12:29:05.063Z,4.15
2023-05-15T12:31:34.758Z,4.75
2023-05-15T12:34:03.029Z,5.30
2023-05-15T12:36:32.686Z,2.85
2023-05-15T12:39:08.191Z,2.58
2023-05-15T12:41:38.876Z,1.95
2023-05-15T12:44:07.269Z,1.83
2023-05-15T12:46:35.439Z,1.50
2023-05-15T12:49:04.275Z,1.33
2023-05-15T12:51:33.835Z,1.40
2023-05-15T12:54:02.078Z,1.70
2023-05-15T12:56:31.271Z,1.48
2023-05-15T12:58:59.874Z,2.42
2023-05-15T13:01:29.816Z,1.95
2023-05-15T13:03:58.717Z,1.90
2023-05-15T13:06:41.953Z,2.00
2023-05-15T13:09:16.127Z,1.48
2023-05-15T13:11:45.335Z,1.73
2023-05-15T13:14:17.859Z,1.60
2023-05-15T13:16:47.693Z,1.50
2023-05-15T13:19:16.007Z,2.00
2023-05-15T13:21:45.658Z,1.50
2023-05-15T13:24:15.483Z,1.65
2023-05-15T13:26:43.755Z,1.85
2023-05-15T13:29:12.066Z,1.67
2023-05-15T13:31:40.559Z,1.55
2023-05-15T13:34:09.237Z,1.70
2023-05-15T13:36:38.021Z,1.77
2023-05-15T13:39:06.630Z,1.60
2023-05-15T13:41:38.839Z,1.40
2023-05-15T13:44:07.446Z,1.63
2023-05-15T13:46:35.721Z,1.42
2023-05-15T13:49:05.643Z,1.48
2023-05-15T13:51:34.482Z,1.40
2023-05-15T13:54:02.765Z,1.50
2023-05-15T13:56:31.296Z,1.52
2023-05-15T13:59:01.002Z,1.33
2023-05-15T14:01:29.432Z,1.50
2023-05-15T14:03:57.953Z,1.60
2023-05-15T14:06:27.944Z,1.30
2023-05-15T14:08:56.191Z,1.38
2023-05-15T14:11:24.388Z,1.63
2023-05-15T14:13:52.643Z,1.85
2023-05-15T14:16:22.353Z,1.85
2023-05-15T14:18:50.702Z,2.08
2023-05-15T14:21:19.128Z,1.60
2023-05-15T14:23:47.849Z,1.80
2023-05-15T14:26:16.350Z,1.50
2023-05-15T14:28:44.487Z,1.52
2023-05-15T14:31:12.905Z,1.60
2023-05-15T14:33:42.793Z,2.03
2023-05-15T14:36:12.532Z,1.77
2023-05-15T14:38:42.368Z,1.63
2023-05-15T14:41:12.395Z,1.85
2023-05-15T14:43:41.390Z,1.80
2023-05-15T14:46:11.436Z,1.80
2023-05-15T14:48:39.779Z,1.63
2023-05-15T14:51:09.502Z,1.85
2023-05-15T14:53:37.904Z,1.98
2023-05-15T14:56:06.560Z,1.80
2023-05-15T14:58:34.819Z,1.70
2023-05-15T15:01:03.745Z,1.52
2023-05-15T15:03:34.034Z,1.42
2023-05-15T15:06:02.382Z,1.63
2023-05-15T15:08:31.888Z,2.00
2023-05-15T15:11:00.188Z,1.83
2023-05-15T15:13:30.075Z,1.65
2023-05-15T15:15:58.678Z,1.60
2023-05-15T15:18:26.830Z,1.70
2023-05-15T15:20:55.722Z,1.60
2023-05-15T15:23:24.201Z,1.90
2023-05-15T15:25:53.770Z,1.40
2023-05-15T15:28:21.974Z,1.75
2023-05-15T15:30:50.328Z,1.60
2023-05-15T15:33:18.560Z,1.63
2023-05-15T15:35:46.712Z,1.70
2023-05-15T15:38:14.875Z,1.60
2023-05-15T15:40:43.045Z,1.60
2023-05-15T15:43:12.707Z,1.80
2023-05-15T15:45:41.187Z,1.50
2023-05-15T15:48:09.485Z,1.42
2023-05-15T15:50:37.675Z,1.60
2023-05-15T15:53:08.703Z,1.60
2023-05-15T15:55:36.903Z,1.50
2023-05-15T15:58:05.007Z,1.67
2023-05-15T16:00:34.521Z,1.65
2023-05-15T16:03:02.758Z,1.65
2023-05-15T16:05:31.250Z,1.50
2023-05-15T16:07:59.551Z,1.70
2023-05-15T16:10:27.866Z,1.60
2023-05-15T16:12:56.945Z,1.52
2023-05-15T16:15:25.312Z,1.63
2023-05-15T16:17:55.263Z,1.45
2023-05-15T16:20:24.563Z,1.80
2023-05-15T16:22:53.193Z,1.85
2023-05-15T16:25:21.810Z,1.90
2023-05-15T16:27:50.108Z,1.73
2023-05-15T16:30:18.301Z,1.40
2023-05-15T16:32:47.044Z,1.85
2023-05-15T16:35:16.622Z,1.95
2023-05-15T16:37:44.933Z,1.92
2023-05-15T16:40:13.835Z,1.92
2023-05-15T16:42:43.059Z,2.08
2023-05-15T16:45:11.624Z,2.08
2023-05-15T16:47:42.514Z,2.20
2023-05-15T16:50:11.283Z,2.10
2023-05-15T16:52:45.506Z,1.90
2023-05-15T16:55:15.660Z,2.30
2023-05-15T16:57:43.934Z,1.77
2023-05-15T17:00:13.684Z,2.03
2023-05-15T17:02:42.929Z,1.90
2023-05-15T17:05:11.860Z,2.30
2023-05-15T17:07:42.859Z,2.13
2023-05-15T17:10:12.713Z,2.20
2023-05-15T17:12:41.548Z,2.45
2023-05-15T17:15:10.800Z,2.22
2023-05-15T17:17:39.228Z,2.03
2023-05-15T17:20:08.436Z,1.88
2023-05-15T17:22:36.846Z,2.30
2023-05-15T17:25:07.339Z,2.13
2023-05-15T17:27:39.736Z,1.80
2023-05-15T17:30:09.619Z,2.67
2023-05-15T17:32:38.396Z,2.00
2023-05-15T17:35:08.149Z,1.70
2023-05-15T17:37:36.354Z,1.83
2023-05-15T17:40:06.994Z,1.70
2023-05-15T17:42:36.046Z,1.90
2023-05-15T17:45:04.430Z,2.30
2023-05-15T17:47:32.669Z,1.58
2023-05-15T17:50:00.797Z,1.73
2023-05-15T17:52:29.207Z,2.05
2023-05-15T17:54:57.639Z,1.88
2023-05-15T17:57:28.405Z,1.70
2023-05-15T17:59:56.579Z,1.80
2023-05-15T18:02:24.904Z,1.63
2023-05-15T18:04:53.279Z,1.50
2023-05-15T18:07:22.020Z,1.67
2023-05-15T18:09:50.202Z,1.50
2023-05-15T18:12:19.209Z,1.77
2023-05-15T18:14:48.828Z,1.80
2023-05-15T18:17:17.304Z,1.45
2023-05-15T18:19:45.714Z,1.52
2023-05-15T18:22:13.912Z,1.58
2023-05-15T18:24:42.708Z,1.48
2023-05-15T18:27:12.159Z,1.80
2023-05-15T18:29:40.498Z,1.50
2023-05-15T18:32:11.055Z,1.50
2023-05-15T18:34:39.922Z,1.52
2023-05-15T18:37:08.582Z,1.40
2023-05-15T18:39:39.281Z,1.13
2023-05-15T18:42:08.347Z,1.55
2023-05-15T18:44:36.529Z,1.48
2023-05-15T18:47:04.844Z,1.95
2023-05-15T18:49:35.028Z,1.80
2023-05-15T18:52:03.202Z,1.40
2023-05-15T18:54:31.346Z,1.60
2023-05-15T18:56:59.547Z,1.27
2023-05-15T18:59:28.435Z,1.67
2023-05-15T19:01:56.700Z,1.48
2023-05-15T19:04:27.479Z,1.33
2023-05-15T19:06:57.038Z,1.15
2023-05-15T19:09:26.489Z,1.15
2023-05-15T19:11:54.703Z,0.75
2023-05-15T19:14:22.928Z,1.48
2023-05-15T19:16:51.109Z,1.35
2023-05-15T19:19:19.830Z,1.02
2023-05-15T19:21:50.782Z,0.90
2023-05-15T19:24:21.871Z,1.10
2023-05-15T19:26:49.978Z,1.13
2023-05-15T19:29:18.445Z,1.30
2023-05-15T19:31:46.996Z,1.00
2023-05-15T19:34:15.410Z,0.93
2023-05-15T19:36:43.530Z,0.95
2023-05-15T19:39:11.777Z,1.20
2023-05-15T19:41:42.772Z,1.10
2023-05-15T19:44:11.269Z,0.65
2023-05-15T19:46:40.025Z,0.75
2023-05-15T19:49:08.260Z,0.95
2023-05-15T19:51:36.466Z,0.90
2023-05-15T19:54:04.705Z,0.80
2023-05-15T19:56:33.020Z,0.90
2023-05-15T19:59:02.605Z,1.13
2023-05-15T20:01:31.277Z,0.80
2023-05-15T20:03:59.623Z,0.95
2023-05-15T20:06:28.332Z,0.82
2023-05-15T20:08:56.534Z,0.70
2023-05-15T20:11:24.715Z,0.60
2023-05-15T20:13:52.876Z,0.82
2023-05-15T20:16:23.182Z,0.73
2023-05-15T20:18:54.811Z,0.75
2023-05-15T20:21:23.160Z,0.90
2023-05-15T20:23:51.424Z,0.65
2023-05-15T20:26:22.455Z,0.80
2023-05-15T20:28:50.880Z,0.73
2023-05-15T20:31:20.362Z,0.57
2023-05-15T20:33:49.919Z,0.52
2023-05-15T20:36:18.539Z,0.80
2023-05-15T20:38:47.172Z,0.90
2023-05-15T20:41:16.546Z,0.57
2023-05-15T20:43:44.798Z,0.80
2023-05-15T20:46:13.050Z,0.80
2023-05-15T20:48:43.485Z,0.80
2023-05-15T20:51:15.001Z,0.75
2023-05-15T20:53:43.922Z,0.75
2023-05-15T20:56:12.354Z,0.80
2023-05-15T20:58:40.860Z,0.55
2023-05-15T21:01:09.290Z,0.88
2023-05-15T21:03:37.532Z,0.73
2023-05-15T21:06:06.090Z,0.98
2023-05-15T21:08:35.546Z,0.75
2023-05-15T21:11:03.849Z,0.77
2023-05-15T21:13:32.029Z,1.05
2023-05-15T21:16:00.075Z,0.77
2023-05-15T21:18:28.158Z,1.40
2023-05-15T21:20:56.427Z,1.33
2023-05-15T21:23:24.438Z,1.38
2023-05-15T21:25:54.618Z,1.00
2023-05-15T21:28:22.655Z,1.30
2023-05-15T21:30:50.793Z,1.05
2023-05-15T21:33:18.991Z,1.05
2023-05-15T21:35:47.482Z,1.00
2023-05-15T21:38:15.566Z,1.50
2023-05-15T21:40:44.067Z,1.63
2023-05-15T21:43:13.541Z,1.23
2023-05-15T21:45:41.628Z,1.25
2023-05-15T21:48:09.826Z,1.13
2023-05-15T21:50:37.932Z,1.10
2023-05-15T21:53:06.023Z,0.90
2023-05-15T21:55:34.033Z,1.10
2023-05-15T21:58:02.034Z,1.40
2023-05-15T22:00:31.653Z,1.50
2023-05-15T22:02:59.834Z,1.35
2023-05-15T22:05:28.084Z,1.48
2023-05-15T22:07:56.223Z,1.35
2023-05-15T22:10:24.440Z,1.08
2023-05-15T22:12:52.918Z,1.58
2023-05-15T22:15:21.093Z,1.75
2023-05-15T22:17:50.812Z,1.10
2023-05-15T22:20:21.049Z,1.60
2023-05-15T22:22:50.109Z,1.20
2023-05-15T22:25:18.363Z,1.25
2023-05-15T22:27:48.698Z,1.60
2023-05-15T22:30:17.548Z,1.38
2023-05-15T22:32:46.605Z,1.27
2023-05-15T22:35:16.647Z,1.17
2023-05-15T22:37:45.542Z,1.20
2023-05-15T22:40:14.348Z,1.70
2023-05-15T22:42:42.626Z,1.48
2023-05-15T22:45:11.547Z,1.15
2023-05-15T22:47:40.733Z,0.98
2023-05-15T22:50:10.254Z,1.33
2023-05-15T22:52:39.917Z,1.25
2023-05-15T22:55:10.383Z,1.48
2023-05-15T22:57:38.496Z,1.35
2023-05-15T23:00:08.129Z,1.35
2023-05-15T23:02:38.150Z,1.15
2023-05-15T23:05:06.832Z,1.40
2023-05-15T23:07:34.942Z,1.67
2023-05-15T23:10:04.722Z,1.15
2023-05-15T23:12:32.895Z,0.90
2023-05-15T23:15:00.932Z,1.15
2023-05-15T23:17:28.996Z,0.98
2023-05-15T23:19:57.053Z,1.20
2023-05-15T23:22:25.577Z,1.20
2023-05-15T23:24:53.553Z,1.50
2023-05-15T23:27:22.945Z,1.83
2023-05-15T23:29:51.011Z,1.10
2023-05-15T23:32:19.021Z,1.63
2023-05-15T23:34:47.083Z,1.27
2023-05-15T23:37:16.678Z,1.50
2023-05-15T23:39:44.753Z,0.95
2023-05-15T23:42:12.760Z,1.42
2023-05-15T23:44:42.147Z,1.13
2023-05-15T23:47:10.531Z,1.23
2023-05-15T23:49:38.696Z,1.27
2023-05-15T23:52:07.788Z,1.38
2023-05-15T23:54:35.947Z,1.23
2023-05-15T23:57:04.002Z,1.30
2023-05-15T23:59:32.105Z,1.65
